Time;durP1;ratioP1;P1;durP2;ratioP2;P2;SDS_P1;SDS_P2;PMS_P1;PMS_P2;Temp;Humidity;BMP_temperature;BMP_pressure;BME280_temperature;BME280_humidity;BME280_pressure;Samples;Min_cycle;Max_cycle;Signal;HPM_P1;HPM_P2
2022/03/25 00:02:04;;;;;;;31.57;20.53;;;;;;;;;;5073879;28;20204;-77
2022/03/25 00:04:30;;;;;;;33.33;23.07;;;;;;;;;;5088310;28;20242;-77
2022/03/25 00:06:56;;;;;;;32.07;22.07;;;;;;;;;;5073313;28;20178;-77
2022/03/25 00:09:22;;;;;;;34.07;22.03;;;;;;;;;;5070203;28;20667;-79
2022/03/25 00:11:48;;;;;;;36.40;22.57;;;;;;;;;;5071225;28;20250;-78
2022/03/25 00:14:14;;;;;;;30.80;21.30;;;;;;;;;;5068979;28;20210;-76
2022/03/25 00:16:42;;;;;;;31.97;21.80;;;;;;;;;;5069036;28;20223;-76
2022/03/25 00:19:08;;;;;;;35.20;22.40;;;;;;;;;;5066636;28;20174;-77
2022/03/25 00:21:35;;;;;;;30.23;21.10;;;;;;;;;;5068118;28;20531;-76
2022/03/25 00:24:01;;;;;;;34.20;23.20;;;;;;;;;;5071136;28;20227;-76
2022/03/25 00:26:27;;;;;;;33.17;21.87;;;;;;;;;;5064204;28;20252;-76
2022/03/25 00:28:54;;;;;;;35.50;21.80;;;;;;;;;;5056692;28;20544;-76
2022/03/25 00:31:21;;;;;;;32.33;23.20;;;;;;;;;;5044552;28;20247;-76
2022/03/25 00:33:49;;;;;;;33.80;22.73;;;;;;;;;;5064019;28;20220;-76
2022/03/25 00:36:17;;;;;;;32.73;22.17;;;;;;;;;;5067998;28;20189;-76
2022/03/25 00:38:44;;;;;;;32.40;22.30;;;;;;;;;;5068540;28;20235;-76
2022/03/25 00:41:11;;;;;;;32.77;23.07;;;;;;;;;;5065918;28;20732;-76
2022/03/25 00:43:37;;;;;;;36.70;23.40;;;;;;;;;;5065573;28;20229;-76
2022/03/25 00:46:04;;;;;;;34.17;22.30;;;;;;;;;;5067709;28;20189;-76
2022/03/25 00:48:30;;;;;;;32.73;22.33;;;;;;;;;;5075983;28;20189;-76
2022/03/25 00:50:57;;;;;;;31.30;21.47;;;;;;;;;;5054734;28;20609;-76
2022/03/25 00:53:23;;;;;;;33.53;21.70;;;;;;;;;;5071041;28;20604;-76
2022/03/25 00:55:49;;;;;;;37.73;24.00;;;;;;;;;;5059443;28;20177;-76
2022/03/25 00:58:16;;;;;;;32.43;22.73;;;;;;;;;;5066491;28;20239;-76
2022/03/25 01:00:43;;;;;;;31.40;22.23;;;;;;;;;;5050725;28;20202;-76
2022/03/25 01:03:09;;;;;;;33.63;22.10;;;;;;;;;;5070031;28;20201;-76
2022/03/25 01:05:35;;;;;;;37.50;22.83;;;;;;;;;;5067670;28;20178;-76
2022/03/25 01:08:02;;;;;;;33.87;22.43;;;;;;;;;;5063620;28;20312;-76
2022/03/25 01:10:28;;;;;;;34.70;22.07;;;;;;;;;;5046207;28;20595;-76
2022/03/25 01:12:55;;;;;;;31.63;22.03;;;;;;;;;;5065978;28;20201;-76
2022/03/25 01:15:21;;;;;;;34.53;23.67;;;;;;;;;;5071329;28;20529;-76
2022/03/25 01:17:47;;;;;;;35.60;23.50;;;;;;;;;;5077945;28;20177;-76
2022/03/25 01:20:13;;;;;;;34.63;23.10;;;;;;;;;;5068489;28;20196;-76
2022/03/25 01:22:41;;;;;;;38.77;24.03;;;;;;;;;;5055261;28;20213;-76
2022/03/25 01:25:08;;;;;;;37.87;24.20;;;;;;;;;;5071960;28;20189;-76
2022/03/25 01:27:34;;;;;;;34.27;23.40;;;;;;;;;;5067017;28;20661;-76
2022/03/25 01:30:01;;;;;;;37.27;23.07;;;;;;;;;;5071035;28;20180;-76
2022/03/25 01:32:27;;;;;;;33.30;22.20;;;;;;;;;;5036217;28;20213;-76
2022/03/25 01:34:54;;;;;;;33.60;21.57;;;;;;;;;;5069710;28;20758;-76
2022/03/25 01:37:20;;;;;;;30.40;21.67;;;;;;;;;;5070052;28;20169;-76
2022/03/25 01:39:47;;;;;;;35.40;22.53;;;;;;;;;;5059870;28;20184;-76
2022/03/25 01:42:15;;;;;;;29.53;20.53;;;;;;;;;;5064626;28;20205;-76
2022/03/25 01:44:42;;;;;;;35.13;22.27;;;;;;;;;;5070082;28;20200;-76
2022/03/25 01:47:09;;;;;;;33.23;22.03;;;;;;;;;;5046619;28;20956;-76
2022/03/25 01:49:35;;;;;;;31.60;21.83;;;;;;;;;;5064084;28;20268;-76
2022/03/25 01:52:03;;;;;;;30.17;21.20;;;;;;;;;;5069151;28;20205;-76
2022/03/25 01:54:30;;;;;;;34.67;22.00;;;;;;;;;;5062909;28;20215;-76
2022/03/25 01:57:05;;;;;;;30.03;21.37;;;;;;;;;;5062213;28;20197;-76
2022/03/25 01:59:31;;;;;;;37.20;23.03;;;;;;;;;;5044065;28;20194;-76
2022/03/25 02:01:58;;;;;;;33.23;21.37;;;;;;;;;;5069381;28;20295;-76
2022/03/25 02:04:25;;;;;;;31.97;20.83;;;;;;;;;;5040393;28;20667;-76
2022/03/25 02:06:52;;;;;;;34.33;22.37;;;;;;;;;;5036933;28;20193;-76
2022/03/25 02:09:19;;;;;;;32.97;22.60;;;;;;;;;;5066571;28;20564;-76
2022/03/25 02:11:47;;;;;;;32.47;21.50;;;;;;;;;;5060787;28;20177;-76
2022/03/25 02:14:14;;;;;;;34.20;22.97;;;;;;;;;;5064849;28;20206;-76
2022/03/25 02:16:42;;;;;;;37.87;24.07;;;;;;;;;;5048942;28;20178;-76
2022/03/25 02:19:11;;;;;;;36.90;23.73;;;;;;;;;;5063409;28;20185;-76
2022/03/25 02:21:39;;;;;;;40.70;24.03;;;;;;;;;;5069189;28;20697;-76
2022/03/25 02:24:07;;;;;;;35.23;22.43;;;;;;;;;;5049260;28;20177;-76
2022/03/25 02:26:35;;;;;;;33.83;22.10;;;;;;;;;;5062300;28;20182;-76
2022/03/25 02:29:04;;;;;;;34.73;22.27;;;;;;;;;;5073269;28;20239;-76
2022/03/25 02:31:31;;;;;;;37.80;22.27;;;;;;;;;;5069354;28;20192;-76
2022/03/25 02:33:59;;;;;;;36.93;22.33;;;;;;;;;;5055484;28;20205;-76
2022/03/25 02:36:25;;;;;;;33.87;22.63;;;;;;;;;;5068593;28;20192;-76
2022/03/25 02:38:51;;;;;;;36.47;22.70;;;;;;;;;;5062895;28;20170;-76
2022/03/25 02:41:17;;;;;;;32.27;21.97;;;;;;;;;;5055840;28;20193;-76
2022/03/25 02:43:44;;;;;;;32.10;21.80;;;;;;;;;;5063198;28;20207;-76
2022/03/25 02:46:10;;;;;;;36.87;22.47;;;;;;;;;;5073763;28;20649;-76
2022/03/25 02:48:36;;;;;;;32.97;22.50;;;;;;;;;;5073655;28;20230;-76
2022/03/25 02:51:03;;;;;;;40.73;24.20;;;;;;;;;;5069192;28;20169;-76
2022/03/25 02:53:31;;;;;;;34.87;22.80;;;;;;;;;;5070030;28;20213;-76
2022/03/25 02:55:57;;;;;;;34.27;22.97;;;;;;;;;;5080195;28;20264;-76
2022/03/25 02:58:23;;;;;;;32.57;22.73;;;;;;;;;;5057224;28;20672;-76
2022/03/25 03:00:49;;;;;;;37.00;21.93;;;;;;;;;;5051344;28;20204;-76
2022/03/25 03:03:15;;;;;;;33.43;20.53;;;;;;;;;;5067346;28;20236;-76
2022/03/25 03:05:42;;;;;;;33.87;21.67;;;;;;;;;;5073632;28;20579;-76
2022/03/25 03:08:09;;;;;;;41.90;26.47;;;;;;;;;;5053196;28;20177;-76
2022/03/25 03:10:35;;;;;;;38.60;24.93;;;;;;;;;;5065054;28;20185;-76
2022/03/25 03:13:05;;;;;;;37.60;24.03;;;;;;;;;;5064520;28;20266;-76
2022/03/25 03:15:31;;;;;;;36.97;22.93;;;;;;;;;;5074708;28;20188;-76
2022/03/25 03:17:58;;;;;;;36.03;22.80;;;;;;;;;;5070746;28;20184;-76
2022/03/25 03:20:24;;;;;;;35.80;23.43;;;;;;;;;;5072740;28;20191;-76
2022/03/25 03:22:50;;;;;;;34.70;22.90;;;;;;;;;;5073349;28;20197;-76
2022/03/25 03:25:17;;;;;;;36.03;23.67;;;;;;;;;;5069322;28;20178;-76
2022/03/25 03:27:43;;;;;;;37.87;24.17;;;;;;;;;;5072660;28;20181;-76
2022/03/25 03:30:09;;;;;;;33.73;22.40;;;;;;;;;;5061557;28;20272;-76
2022/03/25 03:32:37;;;;;;;39.60;24.13;;;;;;;;;;5067863;28;20232;-76
2022/03/25 03:35:03;;;;;;;39.67;24.90;;;;;;;;;;5038143;28;20185;-76
2022/03/25 03:37:30;;;;;;;35.57;23.53;;;;;;;;;;5075728;28;20181;-76
2022/03/25 03:39:56;;;;;;;35.47;23.50;;;;;;;;;;5062265;28;20628;-76
2022/03/25 03:42:22;;;;;;;36.97;21.87;;;;;;;;;;5066980;28;20194;-76
2022/03/25 03:44:48;;;;;;;35.00;21.60;;;;;;;;;;5064788;28;20169;-76
2022/03/25 03:47:14;;;;;;;37.67;23.13;;;;;;;;;;5073431;28;20177;-76
2022/03/25 03:49:41;;;;;;;34.23;23.13;;;;;;;;;;5070500;28;20208;-76
2022/03/25 03:52:10;;;;;;;34.33;23.33;;;;;;;;;;5060581;28;20210;-76
2022/03/25 03:54:38;;;;;;;38.40;23.13;;;;;;;;;;5080164;28;20400;-76
2022/03/25 03:57:23;;;;;;;35.50;22.30;;;;;;;;;;5066630;28;20189;-75
2022/03/25 03:59:49;;;;;;;39.90;24.57;;;;;;;;;;5073022;28;20694;-76
2022/03/25 04:02:15;;;;;;;36.27;24.07;;;;;;;;;;5071394;28;20759;-76
2022/03/25 04:04:42;;;;;;;38.43;25.13;;;;;;;;;;5071898;28;20197;-76
2022/03/25 04:07:08;;;;;;;36.63;24.33;;;;;;;;;;5073006;28;20216;-76
2022/03/25 04:09:36;;;;;;;36.53;23.97;;;;;;;;;;5071604;28;20196;-76
2022/03/25 04:12:02;;;;;;;40.47;24.80;;;;;;;;;;5072061;28;20627;-76
2022/03/25 04:14:28;;;;;;;40.13;23.17;;;;;;;;;;5057705;28;20213;-76
2022/03/25 04:16:54;;;;;;;32.37;22.63;;;;;;;;;;5070781;28;20559;-76
2022/03/25 04:19:20;;;;;;;39.47;26.17;;;;;;;;;;5072068;28;20177;-76
2022/03/25 04:21:47;;;;;;;34.33;23.87;;;;;;;;;;5068180;28;20566;-76
2022/03/25 04:24:13;;;;;;;33.67;22.80;;;;;;;;;;5069256;28;20189;-76
2022/03/25 04:26:39;;;;;;;36.83;22.63;;;;;;;;;;5071894;28;20648;-76
2022/03/25 04:29:06;;;;;;;34.07;21.40;;;;;;;;;;5072045;28;20192;-76
2022/03/25 04:31:32;;;;;;;32.90;22.83;;;;;;;;;;5071046;28;20184;-76
2022/03/25 04:33:58;;;;;;;33.07;21.93;;;;;;;;;;5071747;28;20699;-76
2022/03/25 04:36:25;;;;;;;34.50;21.43;;;;;;;;;;5053529;28;20185;-76
2022/03/25 04:38:51;;;;;;;36.37;22.73;;;;;;;;;;5071706;28;20185;-76
2022/03/25 04:41:17;;;;;;;35.40;23.00;;;;;;;;;;5071838;28;20634;-76
2022/03/25 04:43:43;;;;;;;32.73;21.87;;;;;;;;;;5068758;28;20205;-76
2022/03/25 04:46:10;;;;;;;36.63;22.77;;;;;;;;;;5072236;28;20177;-76
2022/03/25 04:48:37;;;;;;;34.67;23.10;;;;;;;;;;5066947;28;20189;-76
2022/03/25 04:51:03;;;;;;;37.17;23.03;;;;;;;;;;5063543;28;20723;-76
2022/03/25 04:53:29;;;;;;;36.03;23.03;;;;;;;;;;5067703;28;20205;-76
2022/03/25 04:55:55;;;;;;;35.23;21.93;;;;;;;;;;5071886;28;20223;-76
2022/03/25 04:58:21;;;;;;;37.03;22.60;;;;;;;;;;5071624;28;20268;-76
2022/03/25 05:00:48;;;;;;;36.50;22.17;;;;;;;;;;5071501;28;20508;-76
2022/03/25 05:03:14;;;;;;;36.73;23.03;;;;;;;;;;5069990;28;20232;-76
2022/03/25 05:05:42;;;;;;;33.03;21.73;;;;;;;;;;5067547;28;20219;-76
2022/03/25 05:08:09;;;;;;;34.53;22.30;;;;;;;;;;5054060;28;20650;-76
2022/03/25 05:10:37;;;;;;;33.30;21.70;;;;;;;;;;5063504;28;20219;-76
2022/03/25 05:13:04;;;;;;;34.60;22.90;;;;;;;;;;5071393;28;20208;-76
2022/03/25 05:15:30;;;;;;;34.23;22.70;;;;;;;;;;5070776;28;20184;-76
2022/03/25 05:17:56;;;;;;;36.77;23.10;;;;;;;;;;5069604;28;20742;-76
2022/03/25 05:20:24;;;;;;;32.27;21.33;;;;;;;;;;5071579;28;20185;-76
2022/03/25 05:22:50;;;;;;;31.93;22.20;;;;;;;;;;5067921;28;20288;-75
2022/03/25 05:25:17;;;;;;;33.20;21.87;;;;;;;;;;5071588;28;20196;-76
2022/03/25 05:27:44;;;;;;;34.73;21.07;;;;;;;;;;5070134;28;20188;-76
2022/03/25 05:30:11;;;;;;;33.80;22.33;;;;;;;;;;5055706;28;20196;-77
2022/03/25 05:32:39;;;;;;;33.40;21.83;;;;;;;;;;5065725;28;20209;-77
2022/03/25 05:35:06;;;;;;;40.57;23.47;;;;;;;;;;5053866;28;20180;-74
2022/03/25 05:37:32;;;;;;;37.93;26.30;;;;;;;;;;5065090;28;22220;-73
2022/03/25 05:39:59;;;;;;;38.10;25.27;;;;;;;;;;5065537;28;20244;-72
2022/03/25 05:42:25;;;;;;;41.80;26.60;;;;;;;;;;5059840;28;20208;-73
2022/03/25 05:44:52;;;;;;;39.93;24.87;;;;;;;;;;5069587;28;20181;-73
2022/03/25 05:47:18;;;;;;;39.70;25.03;;;;;;;;;;5067412;28;20577;-73
2022/03/25 05:49:45;;;;;;;36.37;23.73;;;;;;;;;;5063647;28;20192;-73
2022/03/25 05:52:11;;;;;;;40.73;23.83;;;;;;;;;;5061398;28;20205;-73
2022/03/25 05:54:37;;;;;;;37.90;23.53;;;;;;;;;;5069162;28;20598;-73
2022/03/25 05:57:04;;;;;;;38.93;23.73;;;;;;;;;;5067053;28;20761;-73
2022/03/25 05:59:30;;;;;;;36.97;24.50;;;;;;;;;;5069022;28;20188;-73
2022/03/25 06:01:56;;;;;;;41.73;23.90;;;;;;;;;;5063315;28;20189;-73
2022/03/25 06:04:22;;;;;;;36.27;23.27;;;;;;;;;;5068476;28;20216;-75
2022/03/25 06:06:48;;;;;;;36.57;23.73;;;;;;;;;;5067049;28;20181;-75
2022/03/25 06:09:15;;;;;;;36.57;23.60;;;;;;;;;;5065049;28;20185;-73
2022/03/25 06:11:41;;;;;;;41.13;25.30;;;;;;;;;;5068680;28;20189;-76
2022/03/25 06:14:07;;;;;;;34.97;23.83;;;;;;;;;;5069942;28;20212;-78
2022/03/25 06:16:33;;;;;;;38.17;24.13;;;;;;;;;;5069264;28;20227;-74
2022/03/25 06:18:59;;;;;;;33.50;22.50;;;;;;;;;;5063463;28;20181;-73
2022/03/25 06:21:26;;;;;;;35.73;23.77;;;;;;;;;;5069428;28;20592;-71
2022/03/25 06:23:52;;;;;;;46.07;29.17;;;;;;;;;;5068932;28;20209;-74
2022/03/25 06:26:18;;;;;;;37.87;24.60;;;;;;;;;;5069013;28;20274;-74
2022/03/25 06:28:45;;;;;;;42.70;27.17;;;;;;;;;;5068958;28;20191;-74
2022/03/25 06:31:11;;;;;;;37.87;25.73;;;;;;;;;;5070877;28;20181;-74
2022/03/25 06:33:37;;;;;;;40.57;24.80;;;;;;;;;;5072983;28;20579;-74
2022/03/25 06:36:04;;;;;;;44.47;27.50;;;;;;;;;;5065925;28;20174;-74
2022/03/25 06:38:30;;;;;;;46.30;28.50;;;;;;;;;;5066056;28;20203;-74
2022/03/25 06:40:56;;;;;;;47.00;28.67;;;;;;;;;;5067867;28;20176;-75
2022/03/25 06:43:22;;;;;;;43.93;27.70;;;;;;;;;;5069869;28;20205;-73
2022/03/25 06:45:49;;;;;;;45.10;28.97;;;;;;;;;;5069853;28;20185;-74
2022/03/25 06:48:16;;;;;;;42.60;27.50;;;;;;;;;;5067872;28;20277;-74
2022/03/25 06:50:42;;;;;;;40.87;27.77;;;;;;;;;;5067844;28;20181;-74
2022/03/25 06:53:09;;;;;;;42.03;28.13;;;;;;;;;;5067591;28;20259;-74
2022/03/25 06:55:36;;;;;;;40.90;26.63;;;;;;;;;;5067476;28;20201;-74
2022/03/25 06:58:03;;;;;;;41.53;28.77;;;;;;;;;;5068089;28;20182;-74
2022/03/25 07:00:29;;;;;;;46.20;29.00;;;;;;;;;;5064759;28;20193;-74
2022/03/25 07:02:56;;;;;;;42.47;27.53;;;;;;;;;;5060623;28;20209;-74
2022/03/25 07:05:24;;;;;;;41.20;27.63;;;;;;;;;;5060870;28;20592;-74
2022/03/25 07:07:50;;;;;;;44.07;27.23;;;;;;;;;;5070220;28;20185;-73
2022/03/25 07:10:19;;;;;;;43.43;28.03;;;;;;;;;;5070126;28;20688;-75
2022/03/25 07:12:45;;;;;;;47.70;28.57;;;;;;;;;;5067337;28;20217;-75
2022/03/25 07:15:12;;;;;;;52.97;29.63;;;;;;;;;;5055993;28;20733;-75
2022/03/25 07:17:40;;;;;;;45.93;27.90;;;;;;;;;;5069227;28;20641;-76
2022/03/25 07:20:06;;;;;;;49.10;29.30;;;;;;;;;;5070464;28;20170;-74
2022/03/25 07:22:34;;;;;;;45.90;28.77;;;;;;;;;;5067447;28;20236;-74
2022/03/25 07:25:00;;;;;;;40.33;26.07;;;;;;;;;;5058228;28;20238;-74
2022/03/25 07:27:26;;;;;;;42.40;27.27;;;;;;;;;;5063518;28;20186;-74
2022/03/25 07:29:52;;;;;;;44.17;28.27;;;;;;;;;;5066798;28;20550;-74
2022/03/25 07:32:19;;;;;;;39.40;26.77;;;;;;;;;;5066105;28;20200;-74
2022/03/25 07:34:45;;;;;;;45.60;28.80;;;;;;;;;;5063492;28;20306;-74
2022/03/25 07:37:11;;;;;;;47.60;28.90;;;;;;;;;;5070874;28;20562;-74
2022/03/25 07:39:37;;;;;;;43.10;27.77;;;;;;;;;;5070758;28;20177;-74
2022/03/25 07:42:03;;;;;;;46.23;28.70;;;;;;;;;;5069298;28;20289;-74
2022/03/25 07:44:31;;;;;;;44.20;28.23;;;;;;;;;;5064829;28;20184;-74
2022/03/25 07:46:57;;;;;;;45.13;29.40;;;;;;;;;;5072774;28;20208;-74
2022/03/25 07:49:23;;;;;;;43.60;28.27;;;;;;;;;;5075884;28;20583;-74
2022/03/25 07:51:49;;;;;;;42.47;28.87;;;;;;;;;;5069858;28;20322;-74
2022/03/25 07:54:16;;;;;;;45.83;29.43;;;;;;;;;;5073501;28;20209;-74
2022/03/25 07:56:42;;;;;;;44.90;28.77;;;;;;;;;;5071206;28;20185;-74
2022/03/25 07:59:08;;;;;;;43.90;28.53;;;;;;;;;;5071217;28;20200;-74
2022/03/25 08:01:34;;;;;;;46.27;29.50;;;;;;;;;;5073578;28;20266;-74
2022/03/25 08:04:01;;;;;;;42.43;28.23;;;;;;;;;;5070587;28;20719;-74
2022/03/25 08:06:27;;;;;;;46.20;30.87;;;;;;;;;;5071189;28;20186;-74
2022/03/25 08:08:53;;;;;;;41.23;29.60;;;;;;;;;;5068964;28;20182;-74
2022/03/25 08:11:20;;;;;;;42.13;28.67;;;;;;;;;;5060784;28;20235;-74
2022/03/25 08:13:47;;;;;;;43.90;28.77;;;;;;;;;;5070175;28;20208;-74
2022/03/25 08:16:16;;;;;;;41.63;28.50;;;;;;;;;;5061314;28;20177;-74
2022/03/25 08:18:43;;;;;;;46.70;30.73;;;;;;;;;;5071514;28;20645;-74
2022/03/25 08:21:11;;;;;;;47.67;29.80;;;;;;;;;;5070280;28;20284;-74
2022/03/25 08:29:09;;;;;;;45.40;29.73;;;;;;;;;;5069523;28;20189;-74
2022/03/25 08:31:36;;;;;;;45.80;30.20;;;;;;;;;;5068279;28;20196;-75
2022/03/25 08:34:03;;;;;;;42.10;29.00;;;;;;;;;;5065710;28;20224;-74
2022/03/25 08:36:29;;;;;;;43.67;28.57;;;;;;;;;;5071802;28;20173;-74
2022/03/25 08:38:56;;;;;;;41.40;27.23;;;;;;;;;;5070762;28;20188;-75
2022/03/25 08:41:22;;;;;;;42.63;27.83;;;;;;;;;;5069875;28;20792;-74
2022/03/25 08:43:48;;;;;;;39.73;28.10;;;;;;;;;;5067989;28;20207;-73
2022/03/25 08:46:15;;;;;;;40.37;27.77;;;;;;;;;;5071278;28;20189;-73
2022/03/25 08:48:41;;;;;;;51.83;29.33;;;;;;;;;;5072315;28;20797;-74
2022/03/25 08:51:07;;;;;;;42.50;27.77;;;;;;;;;;5069527;28;20722;-74
2022/03/25 08:53:34;;;;;;;76.27;29.87;;;;;;;;;;5071586;28;20201;-74
2022/03/25 08:56:00;;;;;;;43.63;28.23;;;;;;;;;;5068061;28;20182;-73
2022/03/25 08:58:26;;;;;;;42.63;27.77;;;;;;;;;;5071917;28;20232;-73
2022/03/25 09:00:53;;;;;;;40.73;27.33;;;;;;;;;;5064975;28;20242;-74
2022/03/25 09:03:19;;;;;;;47.80;30.13;;;;;;;;;;5070087;28;20209;-74
2022/03/25 09:05:45;;;;;;;47.07;30.03;;;;;;;;;;5054918;28;20190;-74
2022/03/25 09:08:11;;;;;;;43.07;28.90;;;;;;;;;;5069509;28;20192;-74
2022/03/25 09:10:37;;;;;;;45.20;29.30;;;;;;;;;;5071289;28;20189;-74
2022/03/25 09:13:03;;;;;;;44.47;29.43;;;;;;;;;;5064074;28;20213;-74
2022/03/25 09:15:30;;;;;;;41.67;28.60;;;;;;;;;;5069761;28;20173;-74
2022/03/25 09:17:56;;;;;;;41.20;28.13;;;10.60;53.80;;;;;;5062758;28;20186;-74
2022/03/25 09:20:22;;;;;;;41.83;28.30;;;10.90;62.50;;;;;;5066722;28;20179;-74
2022/03/25 09:22:48;;;;;;;40.73;28.43;;;10.90;61.50;;;;;;5061459;28;20201;-74
2022/03/25 09:25:14;;;;;;;47.20;30.70;;;11.00;61.70;;;;;;5072127;28;20174;-74
2022/03/25 09:27:40;;;;;;;42.67;28.83;;;11.20;60.70;;;;;;5070588;28;20549;-74
2022/03/25 09:30:09;;;;;;;40.70;27.43;;;11.20;59.80;;;;;;5071806;28;20667;-75
2022/03/25 09:32:35;;;;;;;37.43;25.37;;;11.40;59.70;;;;;;5058405;28;20201;-74
2022/03/25 09:35:10;;;;;;;43.10;28.90;;;11.50;59.30;;;;;;5071706;28;20181;-74
2022/03/25 09:37:42;;;;;;;42.57;28.70;;;11.60;59.10;;;;;;5069539;28;20176;-74
2022/03/25 09:40:20;;;;;;;44.00;29.47;;;11.70;58.80;;;;;;5070762;28;20181;-74
2022/03/25 09:42:47;;;;;;;44.60;29.33;;;;;;;;;;5068441;28;20203;-74
2022/03/25 09:45:15;;;;;;;45.40;29.70;;;;;;;;;;5071654;28;20181;-74
2022/03/25 09:47:42;;;;;;;42.83;29.70;;;;;;;;;;5070587;28;20267;-74
2022/03/25 09:50:09;;;;;;;44.27;28.33;;;;;;;;;;5070996;28;20177;-74
2022/03/25 09:52:36;;;;;;;44.67;29.83;;;;;;;;;;5069990;28;21006;-74
2022/03/25 09:55:03;;;;;;;43.30;28.90;;;;;;;;;;5053334;28;20232;-74
2022/03/25 09:57:30;;;;;;;42.77;28.90;;;;;;;;;;5065351;28;20210;-74
2022/03/25 09:59:56;;;;;;;42.57;30.23;;;;;;;;;;5062286;28;20215;-74
2022/03/25 10:02:24;;;;;;;41.37;28.03;;;;;;;;;;5070443;28;20296;-74
2022/03/25 10:04:51;;;;;;;38.93;27.60;;;;;;;;;;5071059;28;20260;-74
2022/03/25 10:07:19;;;;;;;42.00;30.40;;;;;;;;;;5068852;28;20173;-74
2022/03/25 10:09:45;;;;;;;39.00;29.50;;;;;;;;;;5068598;28;20801;-74
2022/03/25 10:12:22;;;;;;;43.03;29.57;;;;;;;;;;5062484;28;20224;-74
2022/03/25 10:14:51;;;;;;;45.10;30.57;;;;;;;;;;5069042;28;20221;-74
2022/03/25 10:17:18;;;;;;;38.97;27.83;;;;;;;;;;5071002;28;20645;-74
2022/03/25 10:19:54;;;;;;;39.67;28.27;;;;;;;;;;5069504;28;20184;-74
2022/03/25 10:22:21;;;;;;;45.87;30.97;;;;;;;;;;5069371;28;20602;-74
2022/03/25 10:24:52;;;;;;;40.83;29.13;;;;;;;;;;5059609;28;20691;-74
2022/03/25 10:27:29;;;;;;;41.87;29.83;;;;;;;;;;5069387;28;20220;-74
2022/03/25 10:29:56;;;;;;;46.27;31.30;;;;;;;;;;5068261;28;20198;-74
2022/03/25 10:32:25;;;;;;;40.70;29.80;;;;;;;;;;5058425;28;20646;-74
2022/03/25 10:35:17;;;;;;;44.57;29.80;;;;;;;;;;5068887;28;20205;-74
2022/03/25 10:37:57;;;;;;;44.73;29.80;;;;;;;;;;5066502;28;20197;-74
2022/03/25 10:40:23;;;;;;;40.90;29.50;;;;;;;;;;5067624;28;20184;-74
2022/03/25 10:43:09;;;;;;;45.30;31.87;;;;;;;;;;5069209;28;20858;-74
2022/03/25 10:45:41;;;;;;;42.43;30.13;;;;;;;;;;5069525;28;20461;-74
2022/03/25 10:48:18;;;;;;;42.60;31.50;;;;;;;;;;5065954;28;20599;-74
2022/03/25 10:50:57;;;;;;;45.03;32.23;;;;;;;;;;5066360;28;20184;-74
2022/03/25 10:53:24;;;;;;;44.40;31.17;;;;;;;;;;5065006;28;20213;-74
2022/03/25 10:56:05;;;;;;;44.30;31.50;;;11.80;58.00;;;;;;5073531;28;20245;-74
2022/03/25 10:58:36;;;;;;;45.20;31.50;;;15.30;49.80;;;;;;5068602;28;20288;-74
2022/03/25 11:01:06;;;;;;;45.33;31.53;;;15.40;50.10;;;;;;5067274;28;20201;-74
2022/03/25 11:03:35;;;;;;;45.13;32.03;;;15.50;49.80;;;;;;5066344;28;20231;-75
2022/03/25 11:06:02;;;;;;;44.37;32.07;;;15.60;49.50;;;;;;5071021;28;20199;-75
2022/03/25 11:08:30;;;;;;;44.57;31.13;;;15.70;49.00;;;;;;5068060;28;20184;-77
2022/03/25 11:10:58;;;;;;;43.83;31.80;;;;;;;;;;5069528;28;20189;-74
2022/03/25 11:13:25;;;;;;;47.23;31.93;;;;;;;;;;5071416;28;20217;-74
2022/03/25 11:15:54;;;;;;;43.03;31.13;;;;;;;;;;5071808;28;20197;-74
2022/03/25 11:18:20;;;;;;;43.53;32.30;;;;;;;;;;5072934;28;20196;-75
2022/03/25 11:20:46;;;;;;;45.17;31.77;;;;;;;;;;5072298;28;20238;-75
2022/03/25 11:23:23;;;;;;;50.57;34.30;;;;;;;;;;5072793;28;20724;-74
2022/03/25 11:25:51;;;;;;;41.53;30.07;;;;;;;;;;5072365;28;20196;-75
2022/03/25 11:28:26;;;;;;;43.10;31.90;;;;;;;;;;5071119;28;20733;-74
2022/03/25 11:31:18;;;;;;;45.23;34.07;;;;;;;;;;5070862;28;20269;-75
2022/03/25 11:34:03;;;;;;;47.10;34.07;;;;;;;;;;5069303;28;20276;-75
2022/03/25 11:36:30;;;;;;;46.53;32.93;;;;;;;;;;5071225;28;20173;-75
2022/03/25 11:39:15;;;;;;;45.10;33.27;;;;;;;;;;5071428;28;20181;-75
2022/03/25 11:41:41;;;;;;;48.83;32.80;;;;;;;;;;5071189;28;20208;-75
2022/03/25 11:44:16;;;;;;;49.30;34.07;;;;;;;;;;5071198;28;20188;-76
2022/03/25 11:47:01;;;;;;;47.93;34.97;;;;;;;;;;5070413;28;20246;-76
2022/03/25 11:49:28;;;;;;;45.50;33.80;;;;;;;;;;5071203;28;20228;-75
2022/03/25 11:51:55;;;;;;;44.37;32.97;;;;;;;;;;5071820;28;20663;-76
2022/03/25 11:54:35;;;;;;;46.50;33.77;;;;;;;;;;5071348;28;20644;-73
2022/03/25 11:57:02;;;;;;;46.43;33.73;;;;;;;;;;5068668;28;20591;-74
2022/03/25 11:59:46;;;;;;;47.10;35.00;;;;;;;;;;5071859;28;20184;-75
2022/03/25 12:02:32;;;;;;;44.27;34.23;;;;;;;;;;5077843;28;20548;-75
2022/03/25 12:04:59;;;;;;;46.53;32.87;;;;;;;;;;5072333;28;20189;-75
2022/03/25 12:07:25;;;;;;;47.50;33.13;;;;;;;;;;5058894;28;20768;-75
2022/03/25 12:09:52;;;;;;;41.33;33.23;;;;;;;;;;5072806;28;20247;-75
2022/03/25 12:12:18;;;;;;;45.33;32.93;;;;;;;;;;5072038;28;20215;-75
2022/03/25 12:15:04;;;;;;;41.50;32.90;;;;;;;;;;5065672;28;20204;-75
2022/03/25 12:17:30;;;;;;;44.57;34.17;;;;;;;;;;5070492;28;20181;-75
2022/03/25 12:19:57;;;;;;;44.83;35.07;;;;;;;;;;5071372;28;20177;-75
2022/03/25 12:22:23;;;;;;;42.63;34.43;;;;;;;;;;5070367;28;20199;-76
2022/03/25 12:24:51;;;;;;;44.47;34.30;;;;;;;;;;5070828;28;20645;-76
2022/03/25 12:27:18;;;;;;;42.70;34.73;;;;;;;;;;5069003;28;20255;-75
2022/03/25 12:29:48;;;;;;;39.37;32.37;;;;;;;;;;5069593;28;20238;-75
2022/03/25 12:32:16;;;;;;;41.60;34.50;;;;;;;;;;5050737;28;20259;-76
2022/03/25 12:34:58;;;;;;;41.60;32.93;;;;;;;;;;5051853;28;20218;-75
2022/03/25 12:37:39;;;;;;;43.73;33.70;;;;;;;;;;5064400;28;20173;-76
2022/03/25 12:40:10;;;;;;;42.53;34.60;;;;;;;;;;5066611;28;20175;-75
2022/03/25 12:42:36;;;;;;;41.37;34.60;;;;;;;;;;5071576;28;20228;-75
2022/03/25 12:45:02;;;;;;;38.17;32.03;;;;;;;;;;5070204;28;20654;-75
2022/03/25 12:47:33;;;;;;;41.10;33.33;;;;;;;;;;5067862;28;20261;-76
2022/03/25 12:50:01;;;;;;;39.93;32.43;;;;;;;;;;5068822;28;20197;-78
2022/03/25 12:52:27;;;;;;;39.47;32.37;;;;;;;;;;5066944;28;20252;-76
2022/03/25 12:54:54;;;;;;;38.73;33.47;;;;;;;;;;5072021;28;20235;-76
2022/03/25 12:57:33;;;;;;;36.40;31.60;;;;;;;;;;5071896;28;20193;-76
2022/03/25 12:59:59;;;;;;;34.53;30.73;;;;;;;;;;5072337;28;20280;-76
2022/03/25 13:02:33;;;;;;;37.83;30.43;;;;;;;;;;5070071;28;20276;-76
2022/03/25 13:05:12;;;;;;;37.77;30.23;;;;;;;;;;5070158;28;20201;-79
2022/03/25 13:07:39;;;;;;;36.43;31.10;;;;;;;;;;5061812;28;20208;-76
2022/03/25 13:10:06;;;;;;;34.67;30.83;;;;;;;;;;5067942;28;20182;-76
2022/03/25 13:12:36;;;;;;;33.67;29.00;;;;;;;;;;5085200;28;20209;-76
2022/03/25 13:15:04;;;;;;;39.70;31.13;;;;;;;;;;5071157;28;20710;-76
2022/03/25 13:17:38;;;;;;;37.67;32.57;;;;;;;;;;5060667;28;20181;-76
2022/03/25 13:20:23;;;;;;;35.33;31.63;;;;;;;;;;5068608;28;20191;-76
2022/03/25 13:22:54;;;;;;;30.77;27.37;;;;;;;;;;5071141;28;20258;-76
2022/03/25 13:25:24;;;;;;;35.13;27.70;;;;;;;;;;5067033;28;20280;-76
2022/03/25 13:27:50;;;;;;;35.33;27.27;;;;;;;;;;5069170;28;20239;-76
2022/03/25 13:30:17;;;;;;;31.60;28.17;;;;;;;;;;5071462;28;20186;-76
2022/03/25 13:32:43;;;;;;;30.70;27.03;;;;;;;;;;5066836;28;20236;-76
2022/03/25 13:35:11;;;;;;;30.27;26.97;;;;;;;;;;5069237;28;20219;-76
2022/03/25 13:37:38;;;;;;;36.90;28.30;;;;;;;;;;5066097;28;20295;-76
2022/03/25 13:40:23;;;;;;;30.00;26.80;;;;;;;;;;5070423;28;20701;-76
2022/03/25 13:42:53;;;;;;;31.40;28.13;;;;;;;;;;5069272;28;20280;-76
2022/03/25 13:45:20;;;;;;;30.30;26.93;;;;;;;;;;5065774;28;20193;-76
2022/03/25 13:47:57;;;;;;;30.10;26.87;;;;;;;;;;5064648;28;20210;-76
2022/03/25 13:50:23;;;;;;;29.07;25.97;;;;;;;;;;5070476;28;20266;-76
2022/03/25 13:53:00;;;;;;;30.80;27.50;;;;;;;;;;5070110;28;20198;-76
2022/03/25 13:55:36;;;;;;;29.67;26.40;;;;;;;;;;5076266;28;20172;-76
2022/03/25 13:58:03;;;;;;;30.23;26.97;;;;;;;;;;5076598;28;20601;-76
2022/03/25 14:00:35;;;;;;;30.23;26.40;;;;;;;;;;5071299;28;20186;-76
2022/03/25 14:03:02;;;;;;;30.00;26.83;;;;;;;;;;5065264;28;20608;-76
2022/03/25 14:05:31;;;;;;;32.10;28.60;;;;;;;;;;5070447;28;20231;-76
2022/03/25 14:07:58;;;;;;;28.70;25.80;;;;;;;;;;5067758;28;20176;-76
2022/03/25 14:10:25;;;;;;;29.57;26.37;;;;;;;;;;5062420;28;20193;-76
2022/03/25 14:12:55;;;;;;;33.47;28.17;;;;;;;;;;5067905;28;20209;-76
2022/03/25 14:15:24;;;;;;;30.97;27.50;;;;;;;;;;5065726;28;20263;-76
2022/03/25 14:17:51;;;;;;;29.97;26.80;;;;;;;;;;5063138;28;20184;-76
2022/03/25 14:20:19;;;;;;;29.33;26.20;;;;;;;;;;5064737;28;20178;-76
2022/03/25 14:22:47;;;;;;;30.07;26.80;;;;;;;;;;5065707;28;20210;-76